Terminal Aerodrome Forecast
Issued by NWS

Home | Current Version | Previous Version | Text Only | Print | Product List | Glossary On
Versions: 1 2 3 4 5 6 7 8 9 10 11 12 13 14 15 16
000
FTUS44 KLIX 251131
TAFMSY
TAF
KMSY 251131Z 2512/2612 VRB03KT P6SM SCT015 BKN250
     FM251500 01007KT P6SM VCTS BKN035CB
     FM252100 04005KT P6SM SCT035 BKN100 PROB30 2521/2524 4SM TSRA
      OVC025CB=

USA.gov is the U.S. government's official web portal to all federal, state and local government web resources and services.